BFT2MS EDDL-GCLP
Flight info
| Callsign | BFT2MS |
|---|---|
| Flight time | N/A |
| Altitude | 37000 |
| Route | MODRU7Z MODRU Z283 LNO DCT RASCA DCT FAMEN DCT ESTOC UT300 PON UN872 ERIGA UZ218 FUJTI DCT ATLEN DCT ABUPI DCT DEKUS DCT BEXAL DCT SAMAR |
| Aircraft | A343/H-SDE2E3FGHIJ4J5M1RWXY/LB1D1 |
Departure
| Time | 2026-04-30 18:37 |
|---|---|
| Airport | Düsseldorf Airport (EDDL) |
Arrival
| Time | N/A |
|---|---|
| Airport | Gran Canaria Airport (GCLP) |
| Time | Latitude | Longitude | Altitude | Speed | Heading |
|---|---|---|---|---|---|
| 2026-04-30 18:20 | 51.27909 | 6.76250 | 132 ft | 0 kts | 61° |
| 2026-04-30 18:26 | 51.27891 | 6.76199 | 130 ft | 4 kts | 61° |
| 2026-04-30 18:26 | 51.27878 | 6.76161 | 129 ft | 4 kts | 61° |
| 2026-04-30 18:26 | 51.27867 | 6.76128 | 132 ft | 1 kts | 61° |
| 2026-04-30 18:27 | 51.27846 | 6.76053 | 132 ft | 4 kts | 77° |
| 2026-04-30 18:27 | 51.27843 | 6.76013 | 132 ft | 2 kts | 91° |
| 2026-04-30 18:28 | 51.27844 | 6.75933 | 133 ft | 4 kts | 91° |
| 2026-04-30 18:28 | 51.27844 | 6.75911 | 133 ft | 0 kts | 91° |
| 2026-04-30 18:30 | 51.27859 | 6.76005 | 124 ft | 9 kts | 53° |
| 2026-04-30 18:30 | 51.28016 | 6.76052 | 124 ft | 13 kts | 2° |
| 2026-04-30 18:31 | 51.28084 | 6.76038 | 131 ft | 9 kts | 327° |
| 2026-04-30 18:31 | 51.28054 | 6.75864 | 127 ft | 12 kts | 234° |
| 2026-04-30 18:32 | 51.27923 | 6.75587 | 132 ft | 18 kts | 232° |
| 2026-04-30 18:32 | 51.27858 | 6.75450 | 125 ft | 13 kts | 233° |
| 2026-04-30 18:32 | 51.27867 | 6.75331 | 125 ft | 2 kts | 327° |
| 2026-04-30 18:33 | 51.27868 | 6.75331 | 125 ft | 0 kts | 327° |
| 2026-04-30 18:35 | 51.27869 | 6.75330 | 125 ft | 0 kts | 327° |
| 2026-04-30 18:35 | 51.27881 | 6.75318 | 125 ft | 4 kts | 329° |
| 2026-04-30 18:36 | 51.27981 | 6.75266 | 125 ft | 8 kts | 20° |
| 2026-04-30 18:36 | 51.28078 | 6.75440 | 126 ft | 45 kts | 52° |
| 2026-04-30 18:36 | 51.28895 | 6.77158 | 134 ft | 142 kts | 52° |
| 2026-04-30 18:37 | 51.29545 | 6.78482 | 493 ft | 153 kts | 57° |
| 2026-04-30 18:37 | 51.30208 | 6.79891 | 1030 ft | 161 kts | 56° |
| 2026-04-30 18:37 | 51.30897 | 6.81367 | 1505 ft | 175 kts | 58° |
| 2026-04-30 18:37 | 51.31682 | 6.83061 | 1755 ft | 206 kts | 58° |
| 2026-04-30 18:38 | 51.32593 | 6.85011 | 2168 ft | 232 kts | 57° |
| 2026-04-30 18:38 | 51.33593 | 6.87123 | 2953 ft | 241 kts | 57° |
| 2026-04-30 18:38 | 51.34692 | 6.89216 | 3825 ft | 252 kts | 48° |
| 2026-04-30 18:38 | 51.36221 | 6.90699 | 4662 ft | 267 kts | 23° |
| 2026-04-30 18:39 | 51.38067 | 6.91368 | 5533 ft | 275 kts | 14° |
| 2026-04-30 18:39 | 51.39971 | 6.91847 | 6443 ft | 278 kts | 14° |
| 2026-04-30 18:39 | 51.41901 | 6.92326 | 7315 ft | 281 kts | 14° |
| 2026-04-30 18:39 | 51.43819 | 6.92816 | 8175 ft | 284 kts | 14° |
| 2026-04-30 18:40 | 51.45777 | 6.93309 | 9053 ft | 286 kts | 12° |
| 2026-04-30 18:40 | 51.47795 | 6.93245 | 9901 ft | 297 kts | 351° |
| 2026-04-30 18:40 | 51.49694 | 6.91825 | 10626 ft | 310 kts | 324° |
| 2026-04-30 18:40 | 51.51086 | 6.89047 | 10964 ft | 332 kts | 296° |
| 2026-04-30 18:41 | 51.51971 | 6.85557 | 11284 ft | 351 kts | 290° |
| 2026-04-30 18:41 | 51.52824 | 6.81766 | 11550 ft | 369 kts | 290° |
| 2026-04-30 18:41 | 51.53731 | 6.77798 | 11819 ft | 386 kts | 291° |
| 2026-04-30 18:41 | 51.54683 | 6.73694 | 12299 ft | 395 kts | 290° |
| 2026-04-30 18:42 | 51.55360 | 6.69407 | 12969 ft | 399 kts | 276° |
| 2026-04-30 18:42 | 51.54257 | 6.60758 | 14324 ft | 402 kts | 242° |
| 2026-04-30 18:42 | 51.52978 | 6.56757 | 14908 ft | 406 kts | 240° |
| 2026-04-30 18:45 | 51.32652 | 6.27025 | 20601 ft | 430 kts | 197° |
| 2026-04-30 18:45 | 51.30781 | 6.25931 | 20949 ft | 432 kts | 198° |
| 2026-04-30 18:45 | 51.27939 | 6.24271 | 21456 ft | 435 kts | 198° |
| 2026-04-30 18:46 | 51.25082 | 6.22603 | 21979 ft | 438 kts | 198° |
| 2026-04-30 18:46 | 51.22204 | 6.20922 | 22467 ft | 441 kts | 198° |
| 2026-04-30 18:46 | 51.19306 | 6.19230 | 22958 ft | 444 kts | 198° |
| 2026-04-30 18:46 | 51.16391 | 6.17529 | 23464 ft | 447 kts | 198° |
| 2026-04-30 18:47 | 51.13470 | 6.15826 | 23944 ft | 449 kts | 198° |
| 2026-04-30 18:47 | 51.10527 | 6.14112 | 24322 ft | 452 kts | 198° |
| 2026-04-30 18:47 | 51.07562 | 6.12388 | 24703 ft | 454 kts | 198° |
| 2026-04-30 18:47 | 51.04623 | 6.10681 | 25083 ft | 457 kts | 198° |
| 2026-04-30 18:48 | 51.01638 | 6.08720 | 25454 ft | 461 kts | 205° |
| 2026-04-30 18:48 | 50.98840 | 6.06332 | 25829 ft | 464 kts | 208° |
| 2026-04-30 18:48 | 50.96065 | 6.03686 | 26194 ft | 467 kts | 210° |
| 2026-04-30 18:48 | 50.93304 | 6.00920 | 26546 ft | 469 kts | 210° |
| 2026-04-30 18:49 | 50.90492 | 5.98252 | 26909 ft | 471 kts | 207° |
| 2026-04-30 18:49 | 50.87611 | 5.95718 | 27260 ft | 473 kts | 207° |
| 2026-04-30 18:49 | 50.84888 | 5.92885 | 27590 ft | 477 kts | 216° |
| 2026-04-30 18:49 | 50.82450 | 5.89299 | 27934 ft | 481 kts | 227° |
| 2026-04-30 18:50 | 50.80377 | 5.85103 | 28249 ft | 485 kts | 232° |
| 2026-04-30 18:50 | 50.78441 | 5.80716 | 28546 ft | 487 kts | 235° |
| 2026-04-30 18:50 | 50.76567 | 5.76231 | 28878 ft | 490 kts | 236° |
| 2026-04-30 18:50 | 50.74706 | 5.71683 | 29176 ft | 492 kts | 236° |
| 2026-04-30 18:51 | 50.72848 | 5.67134 | 29445 ft | 494 kts | 236° |
| 2026-04-30 18:51 | 50.70990 | 5.62618 | 29696 ft | 497 kts | 235° |
| 2026-04-30 18:51 | 50.69093 | 5.58047 | 30064 ft | 496 kts | 235° |
| 2026-04-30 18:51 | 50.67195 | 5.53509 | 30521 ft | 494 kts | 234° |
| 2026-04-30 18:52 | 50.65288 | 5.48974 | 30893 ft | 492 kts | 234° |
| 2026-04-30 18:52 | 50.63413 | 5.44533 | 31234 ft | 492 kts | 234° |
| 2026-04-30 18:52 | 50.61515 | 5.40050 | 31569 ft | 491 kts | 234° |
| 2026-04-30 18:52 | 50.59616 | 5.35572 | 31914 ft | 490 kts | 234° |
| 2026-04-30 18:53 | 50.57733 | 5.31117 | 32244 ft | 489 kts | 236° |
| 2026-04-30 18:53 | 50.56132 | 5.26375 | 32565 ft | 490 kts | 246° |
| 2026-04-30 18:53 | 50.54988 | 5.21321 | 32906 ft | 490 kts | 251° |
| 2026-04-30 18:53 | 50.54013 | 5.16248 | 33211 ft | 489 kts | 252° |
| 2026-04-30 18:54 | 50.53053 | 5.11118 | 33553 ft | 488 kts | 252° |
| 2026-04-30 18:54 | 50.52111 | 5.05996 | 33881 ft | 487 kts | 252° |
| 2026-04-30 18:54 | 50.51175 | 5.00870 | 34207 ft | 485 kts | 252° |
| 2026-04-30 18:54 | 50.50244 | 4.95778 | 34500 ft | 484 kts | 252° |
| 2026-04-30 18:55 | 50.49315 | 4.90705 | 34775 ft | 482 kts | 252° |
| 2026-04-30 18:55 | 50.47467 | 4.80684 | 35369 ft | 478 kts | 252° |
| 2026-04-30 18:55 | 50.46349 | 4.75774 | 35678 ft | 475 kts | 244° |
| 2026-04-30 18:56 | 50.43001 | 4.66954 | 36274 ft | 467 kts | 233° |
| 2026-04-30 18:56 | 50.41119 | 4.62882 | 36582 ft | 464 kts | 231° |
| 2026-04-30 18:56 | 50.39185 | 4.58864 | 36892 ft | 461 kts | 231° |
| 2026-04-30 18:57 | 50.35263 | 4.50885 | 37237 ft | 462 kts | 230° |
| 2026-04-30 18:57 | 50.31304 | 4.42819 | 37237 ft | 471 kts | 231° |
| 2026-04-30 18:58 | 50.25340 | 4.30596 | 37239 ft | 471 kts | 231° |
| 2026-04-30 18:59 | 50.19370 | 4.18386 | 37233 ft | 471 kts | 231° |
| 2026-04-30 19:00 | 50.11415 | 4.02214 | 37230 ft | 470 kts | 230° |
| 2026-04-30 19:01 | 50.03411 | 3.86047 | 37222 ft | 471 kts | 231° |
| 2026-04-30 19:02 | 49.97410 | 3.73990 | 37217 ft | 471 kts | 231° |
| 2026-04-30 19:03 | 49.89389 | 3.57957 | 37214 ft | 469 kts | 230° |
| 2026-04-30 19:04 | 49.81348 | 3.41985 | 37206 ft | 469 kts | 230° |
| 2026-04-30 19:05 | 49.73315 | 3.26123 | 37198 ft | 469 kts | 230° |
| 2026-04-30 19:06 | 49.65246 | 3.10287 | 37197 ft | 470 kts | 230° |
| 2026-04-30 19:06 | 49.59151 | 2.98386 | 37193 ft | 470 kts | 230° |
| 2026-04-30 19:07 | 49.53069 | 2.86564 | 37186 ft | 470 kts | 230° |
| 2026-04-30 19:08 | 49.44922 | 2.70813 | 37188 ft | 471 kts | 230° |
| 2026-04-30 19:09 | 49.38810 | 2.59053 | 37180 ft | 469 kts | 229° |
| 2026-04-30 19:09 | 49.34728 | 2.51231 | 37181 ft | 469 kts | 229° |
| 2026-04-30 19:10 | 49.26576 | 2.35676 | 37173 ft | 469 kts | 229° |
| 2026-04-30 19:11 | 49.20426 | 2.24003 | 37159 ft | 468 kts | 229° |
| 2026-04-30 19:12 | 49.16327 | 2.16251 | 37163 ft | 467 kts | 229° |
| 2026-04-30 19:12 | 49.12261 | 2.08581 | 37145 ft | 467 kts | 229° |
| 2026-04-30 19:13 | 49.08680 | 2.00271 | 37162 ft | 470 kts | 241° |
| 2026-04-30 19:13 | 49.05861 | 1.91336 | 37151 ft | 471 kts | 243° |
| 2026-04-30 19:14 | 49.03144 | 1.82231 | 37139 ft | 471 kts | 244° |
| 2026-04-30 19:14 | 49.00424 | 1.73126 | 37138 ft | 471 kts | 244° |
| 2026-04-30 19:15 | 48.97683 | 1.64058 | 37146 ft | 471 kts | 243° |
| 2026-04-30 19:15 | 48.93551 | 1.50512 | 37148 ft | 470 kts | 243° |
| 2026-04-30 19:16 | 48.90799 | 1.41536 | 37151 ft | 471 kts | 243° |
| 2026-04-30 19:17 | 48.86635 | 1.28009 | 37152 ft | 470 kts | 243° |
| 2026-04-30 19:17 | 48.82474 | 1.14565 | 37147 ft | 470 kts | 243° |
| 2026-04-30 19:18 | 48.78280 | 1.01089 | 37136 ft | 470 kts | 243° |
| 2026-04-30 19:19 | 48.75497 | 0.92184 | 37128 ft | 470 kts | 243° |
| 2026-04-30 19:19 | 48.70616 | 0.79304 | 37126 ft | 468 kts | 237° |
| 2026-04-30 19:20 | 48.67204 | 0.70897 | 37127 ft | 468 kts | 237° |
| 2026-04-30 19:21 | 48.62089 | 0.58374 | 37122 ft | 468 kts | 237° |
| 2026-04-30 19:22 | 48.55240 | 0.41638 | 37121 ft | 468 kts | 237° |
| 2026-04-30 19:23 | 48.44938 | 0.16647 | 37121 ft | 468 kts | 237° |
| 2026-04-30 19:24 | 48.39751 | 0.04153 | 37116 ft | 468 kts | 237° |
| 2026-04-30 19:25 | 48.30670 | -0.15960 | 37117 ft | 464 kts | 231° |
| 2026-04-30 19:26 | 48.22784 | -0.31339 | 37118 ft | 464 kts | 231° |
| 2026-04-30 19:27 | 48.16882 | -0.42819 | 37110 ft | 464 kts | 231° |
| 2026-04-30 19:28 | 48.10972 | -0.54324 | 37106 ft | 464 kts | 231° |
| 2026-04-30 19:29 | 48.03112 | -0.69570 | 37102 ft | 464 kts | 231° |
| 2026-04-30 19:30 | 47.95230 | -0.84772 | 37103 ft | 463 kts | 231° |
| 2026-04-30 19:31 | 47.87324 | -0.99933 | 37117 ft | 461 kts | 231° |
| 2026-04-30 19:31 | 47.81424 | -1.11194 | 37118 ft | 461 kts | 231° |
| 2026-04-30 19:32 | 47.77465 | -1.18722 | 37113 ft | 462 kts | 231° |
| 2026-04-30 19:32 | 47.74169 | -1.24974 | 37113 ft | 462 kts | 231° |
| 2026-04-30 19:33 | 47.69549 | -1.33717 | 37118 ft | 461 kts | 231° |
| 2026-04-30 19:33 | 47.66224 | -1.39990 | 37115 ft | 461 kts | 231° |
| 2026-04-30 19:34 | 47.62276 | -1.47421 | 37118 ft | 461 kts | 231° |
| 2026-04-30 19:35 | 47.56150 | -1.58445 | 37112 ft | 461 kts | 227° |
| 2026-04-30 19:35 | 47.51819 | -1.65390 | 37119 ft | 462 kts | 227° |
| 2026-04-30 19:36 | 47.47461 | -1.72381 | 37119 ft | 462 kts | 227° |
| 2026-04-30 19:36 | 47.40989 | -1.82924 | 37122 ft | 461 kts | 227° |
| 2026-04-30 19:37 | 47.36695 | -1.89892 | 37121 ft | 461 kts | 225° |
| 2026-04-30 19:37 | 47.31659 | -1.95768 | 37128 ft | 462 kts | 213° |
| 2026-04-30 19:38 | 47.26193 | -2.00795 | 37129 ft | 463 kts | 211° |
| 2026-04-30 19:38 | 47.20677 | -2.05661 | 37128 ft | 463 kts | 211° |
| 2026-04-30 19:39 | 47.15153 | -2.10533 | 37124 ft | 462 kts | 212° |
| 2026-04-30 19:39 | 47.09621 | -2.15436 | 37125 ft | 463 kts | 212° |
| 2026-04-30 19:40 | 47.04143 | -2.20295 | 37126 ft | 463 kts | 212° |
| 2026-04-30 19:40 | 46.98622 | -2.25181 | 37126 ft | 463 kts | 212° |
| 2026-04-30 19:41 | 46.93094 | -2.30059 | 37130 ft | 463 kts | 212° |
| 2026-04-30 19:41 | 46.87595 | -2.34899 | 37133 ft | 463 kts | 212° |
| 2026-04-30 19:42 | 46.82065 | -2.39758 | 37129 ft | 463 kts | 212° |
| 2026-04-30 19:42 | 46.76529 | -2.44614 | 37132 ft | 463 kts | 212° |
| 2026-04-30 19:43 | 46.71027 | -2.49428 | 37135 ft | 461 kts | 212° |
| 2026-04-30 19:44 | 46.62791 | -2.56614 | 37135 ft | 461 kts | 212° |
| 2026-04-30 19:44 | 46.57279 | -2.61409 | 37135 ft | 461 kts | 212° |
| 2026-04-30 19:45 | 46.51791 | -2.66170 | 37137 ft | 461 kts | 212° |
| 2026-04-30 19:45 | 46.46276 | -2.70944 | 37144 ft | 461 kts | 212° |
| 2026-04-30 19:46 | 46.40754 | -2.75713 | 37140 ft | 461 kts | 212° |
| 2026-04-30 19:46 | 46.35264 | -2.80444 | 37140 ft | 461 kts | 212° |
| 2026-04-30 19:47 | 46.29746 | -2.85185 | 37144 ft | 459 kts | 213° |
| 2026-04-30 19:47 | 46.24541 | -2.90460 | 37145 ft | 456 kts | 221° |
| 2026-04-30 19:48 | 46.19679 | -2.96280 | 37140 ft | 456 kts | 222° |
| 2026-04-30 19:48 | 46.14849 | -3.02207 | 37142 ft | 456 kts | 222° |
| 2026-04-30 19:49 | 46.10007 | -3.08134 | 37147 ft | 455 kts | 222° |
| 2026-04-30 19:49 | 46.02736 | -3.16967 | 37142 ft | 455 kts | 222° |
| 2026-04-30 19:50 | 45.97923 | -3.22787 | 37146 ft | 453 kts | 222° |
| 2026-04-30 19:50 | 45.93097 | -3.28609 | 37147 ft | 452 kts | 222° |
| 2026-04-30 19:51 | 45.88255 | -3.34438 | 37164 ft | 452 kts | 222° |
| 2026-04-30 19:51 | 45.83450 | -3.40209 | 37145 ft | 452 kts | 222° |
| 2026-04-30 19:52 | 45.78620 | -3.45996 | 37146 ft | 452 kts | 222° |
| 2026-04-30 19:52 | 45.73775 | -3.51789 | 37165 ft | 452 kts | 221° |
| 2026-04-30 19:53 | 45.68978 | -3.57509 | 37160 ft | 450 kts | 221° |
| 2026-04-30 19:53 | 45.64171 | -3.63229 | 37141 ft | 449 kts | 221° |
| 2026-04-30 19:54 | 45.59358 | -3.68942 | 37157 ft | 449 kts | 221° |
| 2026-04-30 19:54 | 45.54569 | -3.74615 | 37160 ft | 449 kts | 221° |
| 2026-04-30 19:55 | 45.49743 | -3.80319 | 37154 ft | 449 kts | 221° |
| 2026-04-30 19:55 | 45.44959 | -3.85958 | 37155 ft | 448 kts | 221° |
| 2026-04-30 19:56 | 45.40151 | -3.91614 | 37146 ft | 446 kts | 221° |
| 2026-04-30 19:56 | 45.35400 | -3.97190 | 37147 ft | 444 kts | 221° |
| 2026-04-30 19:57 | 45.30624 | -4.02783 | 37164 ft | 444 kts | 221° |
| 2026-04-30 19:57 | 45.25876 | -4.08330 | 37164 ft | 443 kts | 221° |
| 2026-04-30 19:58 | 45.21100 | -4.13898 | 37159 ft | 444 kts | 221° |
| 2026-04-30 19:58 | 45.16326 | -4.19452 | 37162 ft | 443 kts | 221° |
| 2026-04-30 19:59 | 45.11545 | -4.25000 | 37161 ft | 444 kts | 221° |
| 2026-04-30 20:00 | 45.04408 | -4.33260 | 37160 ft | 443 kts | 221° |
| 2026-04-30 20:00 | 44.99627 | -4.38776 | 37160 ft | 443 kts | 221° |
| 2026-04-30 20:01 | 44.92470 | -4.47014 | 37158 ft | 443 kts | 221° |
| 2026-04-30 20:01 | 44.87704 | -4.52485 | 37157 ft | 443 kts | 221° |
| 2026-04-30 20:02 | 44.80519 | -4.60709 | 37153 ft | 441 kts | 220° |
| 2026-04-30 20:03 | 44.73398 | -4.68833 | 37156 ft | 440 kts | 220° |
| 2026-04-30 20:03 | 44.68627 | -4.74260 | 37156 ft | 440 kts | 220° |
| 2026-04-30 20:04 | 44.63879 | -4.79650 | 37152 ft | 440 kts | 220° |
| 2026-04-30 20:05 | 44.56737 | -4.87736 | 37155 ft | 440 kts | 220° |
| 2026-04-30 20:05 | 44.49449 | -4.95614 | 37162 ft | 441 kts | 214° |
| 2026-04-30 20:06 | 44.44312 | -5.00233 | 37158 ft | 440 kts | 213° |
| 2026-04-30 20:06 | 44.39103 | -5.04773 | 37155 ft | 440 kts | 213° |
| 2026-04-30 20:07 | 44.33896 | -5.09289 | 37159 ft | 440 kts | 213° |
| 2026-04-30 20:08 | 44.26116 | -5.16045 | 37158 ft | 440 kts | 213° |
| 2026-04-30 20:08 | 44.20910 | -5.20561 | 37159 ft | 440 kts | 213° |
| 2026-04-30 20:09 | 44.15707 | -5.25065 | 37160 ft | 440 kts | 213° |
| 2026-04-30 20:09 | 44.07925 | -5.31784 | 37158 ft | 440 kts | 213° |
| 2026-04-30 20:10 | 44.00109 | -5.38510 | 37159 ft | 439 kts | 212° |
| 2026-04-30 20:11 | 43.92338 | -5.45176 | 37156 ft | 439 kts | 212° |
| 2026-04-30 20:11 | 43.87118 | -5.49643 | 37156 ft | 439 kts | 212° |
| 2026-04-30 20:12 | 43.79310 | -5.56306 | 37153 ft | 440 kts | 212° |
| 2026-04-30 20:13 | 43.74090 | -5.60749 | 37153 ft | 440 kts | 212° |
| 2026-04-30 20:13 | 43.68901 | -5.65157 | 37140 ft | 440 kts | 212° |
| 2026-04-30 20:14 | 43.63682 | -5.69582 | 37154 ft | 440 kts | 212° |
| 2026-04-30 20:14 | 43.58452 | -5.74006 | 37157 ft | 439 kts | 212° |
| 2026-04-30 20:15 | 43.53231 | -5.78413 | 37155 ft | 439 kts | 212° |
| 2026-04-30 20:15 | 43.48044 | -5.82783 | 37151 ft | 439 kts | 212° |
| 2026-04-30 20:16 | 43.42806 | -5.87187 | 37158 ft | 440 kts | 211° |
| 2026-04-30 20:16 | 43.37603 | -5.91552 | 37158 ft | 441 kts | 211° |
| 2026-04-30 20:17 | 43.32353 | -5.95948 | 37153 ft | 441 kts | 211° |
| 2026-04-30 20:17 | 43.27097 | -6.00341 | 37148 ft | 441 kts | 211° |
| 2026-04-30 20:18 | 43.21887 | -6.04686 | 37144 ft | 440 kts | 211° |
| 2026-04-30 20:18 | 43.16649 | -6.09044 | 37157 ft | 440 kts | 211° |
| 2026-04-30 20:19 | 43.11448 | -6.13365 | 37139 ft | 438 kts | 211° |
| 2026-04-30 20:19 | 43.07108 | -6.16962 | 37130 ft | 438 kts | 211° |
| 2026-04-30 20:20 | 43.01877 | -6.21290 | 37123 ft | 438 kts | 211° |
| 2026-04-30 20:20 | 42.96662 | -6.25597 | 37120 ft | 437 kts | 211° |
| 2026-04-30 20:21 | 42.91484 | -6.29865 | 37115 ft | 437 kts | 211° |
| 2026-04-30 20:21 | 42.86256 | -6.34165 | 37115 ft | 437 kts | 211° |
| 2026-04-30 20:22 | 42.81066 | -6.38425 | 37103 ft | 438 kts | 211° |
| 2026-04-30 20:22 | 42.75832 | -6.42713 | 37112 ft | 438 kts | 211° |
| 2026-04-30 20:23 | 42.70600 | -6.46991 | 37123 ft | 438 kts | 211° |
| 2026-04-30 20:23 | 42.65402 | -6.51232 | 37105 ft | 437 kts | 211° |
| 2026-04-30 20:24 | 42.60175 | -6.55489 | 37107 ft | 437 kts | 210° |
| 2026-04-30 20:24 | 42.54945 | -6.59740 | 37107 ft | 437 kts | 210° |
| 2026-04-30 20:25 | 42.47129 | -6.66076 | 37112 ft | 437 kts | 210° |
| 2026-04-30 20:26 | 42.39301 | -6.72404 | 37110 ft | 437 kts | 210° |
| 2026-04-30 20:26 | 42.31439 | -6.78741 | 37114 ft | 437 kts | 210° |
| 2026-04-30 20:27 | 42.20983 | -6.87141 | 37110 ft | 437 kts | 210° |
| 2026-04-30 20:28 | 42.10542 | -6.95496 | 37123 ft | 437 kts | 210° |
| 2026-04-30 20:30 | 41.97481 | -7.05901 | 37107 ft | 437 kts | 210° |
| 2026-04-30 20:31 | 41.81742 | -7.18373 | 37118 ft | 438 kts | 210° |
| 2026-04-30 20:32 | 41.68618 | -7.28722 | 37113 ft | 438 kts | 210° |
| 2026-04-30 20:33 | 41.60742 | -7.34912 | 37125 ft | 438 kts | 210° |
| 2026-04-30 20:34 | 41.52875 | -7.41078 | 37111 ft | 438 kts | 210° |
| 2026-04-30 20:35 | 41.44957 | -7.47265 | 37123 ft | 439 kts | 210° |
| 2026-04-30 20:35 | 41.37063 | -7.53417 | 37130 ft | 439 kts | 210° |
| 2026-04-30 20:36 | 41.31792 | -7.57514 | 37129 ft | 439 kts | 210° |
| 2026-04-30 20:37 | 41.23896 | -7.63638 | 37127 ft | 439 kts | 210° |
| 2026-04-30 20:37 | 41.18600 | -7.67736 | 37145 ft | 439 kts | 210° |
| 2026-04-30 20:38 | 41.13347 | -7.71792 | 37124 ft | 439 kts | 210° |
| 2026-04-30 20:38 | 41.08052 | -7.75874 | 37141 ft | 439 kts | 210° |
| 2026-04-30 20:39 | 41.00115 | -7.81978 | 37138 ft | 439 kts | 210° |
| 2026-04-30 20:40 | 40.92221 | -7.88031 | 37141 ft | 438 kts | 210° |
| 2026-04-30 20:40 | 40.86942 | -7.92069 | 37147 ft | 438 kts | 210° |
| 2026-04-30 20:41 | 40.79024 | -7.98113 | 37146 ft | 439 kts | 210° |
| 2026-04-30 20:41 | 40.73734 | -8.02142 | 37148 ft | 439 kts | 210° |
| 2026-04-30 20:42 | 40.68466 | -8.06146 | 37146 ft | 439 kts | 210° |
| 2026-04-30 20:43 | 40.60529 | -8.12165 | 37148 ft | 439 kts | 210° |
| 2026-04-30 20:43 | 40.55219 | -8.16182 | 37151 ft | 440 kts | 210° |
| 2026-04-30 20:44 | 40.47274 | -8.22179 | 37148 ft | 440 kts | 210° |
| 2026-04-30 20:45 | 40.36645 | -8.30177 | 37150 ft | 440 kts | 210° |
| 2026-04-30 20:45 | 40.31326 | -8.34169 | 37154 ft | 440 kts | 210° |
| 2026-04-30 20:46 | 40.20704 | -8.42118 | 37152 ft | 440 kts | 211° |
| 2026-04-30 20:47 | 40.12700 | -8.48088 | 37151 ft | 441 kts | 211° |
| 2026-04-30 20:48 | 40.04716 | -8.54027 | 37154 ft | 442 kts | 211° |
| 2026-04-30 20:48 | 39.99366 | -8.57997 | 37148 ft | 442 kts | 211° |
| 2026-04-30 20:49 | 39.94048 | -8.61937 | 37143 ft | 442 kts | 211° |
| 2026-04-30 20:50 | 39.85996 | -8.67889 | 37133 ft | 445 kts | 212° |
| 2026-04-30 20:50 | 39.80624 | -8.71851 | 37144 ft | 445 kts | 212° |
| 2026-04-30 20:51 | 39.75216 | -8.75832 | 37130 ft | 447 kts | 213° |
| 2026-04-30 20:51 | 39.67096 | -8.81795 | 37131 ft | 448 kts | 213° |
| 2026-04-30 20:52 | 39.61654 | -8.85783 | 37142 ft | 449 kts | 213° |
| 2026-04-30 20:53 | 39.53500 | -8.91745 | 37147 ft | 449 kts | 213° |
| 2026-04-30 20:53 | 39.48044 | -8.95724 | 37153 ft | 449 kts | 213° |
| 2026-04-30 20:54 | 39.39887 | -9.01661 | 37151 ft | 450 kts | 213° |
| 2026-04-30 20:55 | 39.31690 | -9.07611 | 37147 ft | 450 kts | 213° |
| 2026-04-30 20:55 | 39.26219 | -9.11573 | 37150 ft | 449 kts | 214° |
| 2026-04-30 20:56 | 39.18035 | -9.17487 | 37149 ft | 449 kts | 214° |
| 2026-04-30 20:57 | 39.09893 | -9.23355 | 37154 ft | 448 kts | 214° |
| 2026-04-30 20:57 | 39.04437 | -9.27277 | 37155 ft | 449 kts | 213° |
| 2026-04-30 20:58 | 38.96266 | -9.33141 | 37150 ft | 449 kts | 213° |
| 2026-04-30 20:58 | 38.90834 | -9.37029 | 37155 ft | 448 kts | 213° |
| 2026-04-30 20:59 | 38.82644 | -9.42879 | 37156 ft | 450 kts | 213° |
| 2026-04-30 21:00 | 38.71673 | -9.50694 | 37158 ft | 450 kts | 213° |
| 2026-04-30 21:01 | 38.63447 | -9.56531 | 37154 ft | 450 kts | 213° |
| 2026-04-30 21:02 | 38.55256 | -9.62330 | 37154 ft | 450 kts | 213° |
| 2026-04-30 21:02 | 38.49771 | -9.66204 | 37156 ft | 450 kts | 213° |
| 2026-04-30 21:03 | 38.44270 | -9.70084 | 37157 ft | 450 kts | 213° |
| 2026-04-30 21:03 | 38.38813 | -9.73925 | 37157 ft | 451 kts | 213° |
| 2026-04-30 21:04 | 38.33308 | -9.77794 | 37156 ft | 450 kts | 213° |
| 2026-04-30 21:04 | 38.25063 | -9.83575 | 37158 ft | 450 kts | 212° |
| 2026-04-30 21:05 | 38.19601 | -9.87396 | 37156 ft | 449 kts | 212° |
| 2026-04-30 21:05 | 38.14121 | -9.91224 | 37157 ft | 449 kts | 212° |
| 2026-04-30 21:06 | 38.09568 | -9.94399 | 37156 ft | 449 kts | 212° |
| 2026-04-30 21:06 | 38.04086 | -9.98216 | 37156 ft | 449 kts | 212° |
| 2026-04-30 21:07 | 37.98615 | -10.02049 | 37160 ft | 448 kts | 213° |
| 2026-04-30 21:07 | 37.93252 | -10.05965 | 37160 ft | 448 kts | 214° |
| 2026-04-30 21:08 | 37.87840 | -10.09943 | 37162 ft | 448 kts | 213° |
| 2026-04-30 21:08 | 37.82437 | -10.13882 | 37162 ft | 448 kts | 213° |
| 2026-04-30 21:09 | 37.77046 | -10.17791 | 37165 ft | 448 kts | 213° |
| 2026-04-30 21:09 | 37.71634 | -10.21704 | 37168 ft | 448 kts | 213° |
| 2026-04-30 21:10 | 37.66227 | -10.25607 | 37165 ft | 446 kts | 213° |
| 2026-04-30 21:10 | 37.60829 | -10.29498 | 37165 ft | 446 kts | 213° |
| 2026-04-30 21:11 | 37.55454 | -10.33367 | 37165 ft | 446 kts | 213° |
| 2026-04-30 21:11 | 37.50050 | -10.37250 | 37165 ft | 446 kts | 213° |
| 2026-04-30 21:12 | 37.44652 | -10.41122 | 37167 ft | 446 kts | 213° |
| 2026-04-30 21:12 | 37.39281 | -10.44968 | 37167 ft | 446 kts | 213° |
| 2026-04-30 21:13 | 37.33878 | -10.48831 | 37165 ft | 446 kts | 213° |
| 2026-04-30 21:13 | 37.28471 | -10.52690 | 37165 ft | 446 kts | 213° |
| 2026-04-30 21:14 | 37.23068 | -10.56540 | 37160 ft | 446 kts | 213° |
| 2026-04-30 21:14 | 37.17672 | -10.60378 | 37167 ft | 445 kts | 213° |
| 2026-04-30 21:15 | 37.12301 | -10.64192 | 37170 ft | 445 kts | 213° |
| 2026-04-30 21:15 | 37.06910 | -10.68014 | 37170 ft | 445 kts | 213° |
| 2026-04-30 21:16 | 37.01549 | -10.71809 | 37168 ft | 445 kts | 213° |
| 2026-04-30 21:16 | 36.96154 | -10.75621 | 37165 ft | 444 kts | 213° |
| 2026-04-30 21:17 | 36.90777 | -10.79414 | 37168 ft | 443 kts | 213° |
| 2026-04-30 21:17 | 36.85396 | -10.83205 | 37167 ft | 443 kts | 213° |
| 2026-04-30 21:18 | 36.80052 | -10.86963 | 37170 ft | 443 kts | 213° |
| 2026-04-30 21:18 | 36.74658 | -10.90750 | 37170 ft | 443 kts | 213° |
| 2026-04-30 21:19 | 36.69284 | -10.94515 | 37167 ft | 443 kts | 214° |
| 2026-04-30 21:19 | 36.63955 | -10.98243 | 37167 ft | 440 kts | 214° |
| 2026-04-30 21:20 | 36.58610 | -11.01978 | 37169 ft | 439 kts | 214° |
| 2026-04-30 21:20 | 36.53305 | -11.05680 | 37170 ft | 439 kts | 214° |
| 2026-04-30 21:21 | 36.47975 | -11.09393 | 37180 ft | 439 kts | 214° |
| 2026-04-30 21:22 | 36.39969 | -11.14957 | 37173 ft | 437 kts | 215° |
| 2026-04-30 21:23 | 36.29335 | -11.22329 | 37172 ft | 437 kts | 215° |
| 2026-04-30 21:23 | 36.21374 | -11.27832 | 37172 ft | 437 kts | 215° |
| 2026-04-30 21:24 | 36.16096 | -11.31471 | 37177 ft | 436 kts | 216° |
| 2026-04-30 21:24 | 36.10803 | -11.35114 | 37172 ft | 433 kts | 216° |
| 2026-04-30 21:25 | 36.02949 | -11.40516 | 37173 ft | 431 kts | 217° |
| 2026-04-30 21:26 | 35.95058 | -11.45911 | 37148 ft | 433 kts | 215° |
| 2026-04-30 21:27 | 35.86992 | -11.50905 | 37178 ft | 433 kts | 214° |
| 2026-04-30 21:27 | 35.81607 | -11.54246 | 37179 ft | 433 kts | 215° |
| 2026-04-30 21:28 | 35.73570 | -11.59244 | 37179 ft | 432 kts | 215° |
| 2026-04-30 21:29 | 35.65503 | -11.64255 | 37171 ft | 432 kts | 215° |
| 2026-04-30 21:30 | 35.52099 | -11.72559 | 37182 ft | 432 kts | 215° |
| 2026-04-30 21:31 | 35.38679 | -11.80841 | 37180 ft | 432 kts | 215° |
| 2026-04-30 21:32 | 35.30610 | -11.85806 | 37180 ft | 432 kts | 214° |
| 2026-04-30 21:32 | 35.25227 | -11.89112 | 37180 ft | 432 kts | 214° |
| 2026-04-30 21:33 | 35.17182 | -11.94043 | 37181 ft | 432 kts | 214° |
| 2026-04-30 21:34 | 35.11789 | -11.97344 | 37181 ft | 433 kts | 214° |
| 2026-04-30 21:34 | 35.03720 | -12.02271 | 37180 ft | 434 kts | 214° |
| 2026-04-30 21:35 | 34.98311 | -12.05568 | 37180 ft | 433 kts | 214° |
| 2026-04-30 21:35 | 34.92944 | -12.08835 | 37183 ft | 433 kts | 214° |
| 2026-04-30 21:36 | 34.87550 | -12.12113 | 37185 ft | 434 kts | 214° |
| 2026-04-30 21:37 | 34.76723 | -12.18680 | 37184 ft | 435 kts | 214° |
| 2026-04-30 21:37 | 34.71338 | -12.21938 | 37185 ft | 435 kts | 214° |
| 2026-04-30 21:38 | 34.65910 | -12.25218 | 37181 ft | 435 kts | 214° |
| 2026-04-30 21:38 | 34.60479 | -12.28495 | 37173 ft | 435 kts | 214° |
| 2026-04-30 21:39 | 34.55082 | -12.31747 | 37181 ft | 435 kts | 214° |
| 2026-04-30 21:39 | 34.49649 | -12.35015 | 37181 ft | 435 kts | 214° |
| 2026-04-30 21:40 | 34.44219 | -12.38276 | 37185 ft | 435 kts | 214° |
| 2026-04-30 21:40 | 34.38824 | -12.41513 | 37180 ft | 435 kts | 214° |
| 2026-04-30 21:41 | 34.33391 | -12.44766 | 37179 ft | 435 kts | 214° |
| 2026-04-30 21:41 | 34.27952 | -12.48020 | 37181 ft | 435 kts | 214° |
| 2026-04-30 21:42 | 34.22546 | -12.51248 | 37181 ft | 436 kts | 214° |
| 2026-04-30 21:42 | 34.17105 | -12.54493 | 37180 ft | 435 kts | 214° |
| 2026-04-30 21:43 | 34.12582 | -12.57187 | 37181 ft | 435 kts | 214° |
| 2026-04-30 21:43 | 34.06243 | -12.60957 | 37173 ft | 436 kts | 214° |
| 2026-04-30 21:44 | 34.00788 | -12.64197 | 37181 ft | 437 kts | 214° |
| 2026-04-30 21:44 | 33.95349 | -12.67421 | 37182 ft | 437 kts | 214° |
| 2026-04-30 21:45 | 33.89868 | -12.70666 | 37181 ft | 437 kts | 214° |
| 2026-04-30 21:45 | 33.84435 | -12.73878 | 37182 ft | 437 kts | 214° |
| 2026-04-30 21:46 | 33.78968 | -12.77106 | 37177 ft | 438 kts | 214° |
| 2026-04-30 21:46 | 33.73494 | -12.80333 | 37181 ft | 438 kts | 214° |
| 2026-04-30 21:47 | 33.68014 | -12.83559 | 37181 ft | 438 kts | 213° |
| 2026-04-30 21:47 | 33.62560 | -12.86765 | 37181 ft | 438 kts | 213° |
| 2026-04-30 21:48 | 33.57076 | -12.89984 | 37181 ft | 438 kts | 213° |
| 2026-04-30 21:48 | 33.51589 | -12.93201 | 37177 ft | 438 kts | 213° |
| 2026-04-30 21:49 | 33.46122 | -12.96402 | 37184 ft | 439 kts | 213° |
| 2026-04-30 21:49 | 33.40625 | -12.99614 | 37187 ft | 439 kts | 213° |
| 2026-04-30 21:50 | 33.35116 | -13.02830 | 37188 ft | 439 kts | 213° |
| 2026-04-30 21:50 | 33.29611 | -13.06038 | 37186 ft | 439 kts | 213° |
| 2026-04-30 21:51 | 33.24147 | -13.09219 | 37181 ft | 440 kts | 213° |
| 2026-04-30 21:51 | 33.18616 | -13.12435 | 37183 ft | 441 kts | 213° |
| 2026-04-30 21:52 | 33.13094 | -13.15639 | 37185 ft | 441 kts | 213° |
| 2026-04-30 21:52 | 33.07610 | -13.18818 | 37186 ft | 441 kts | 213° |
| 2026-04-30 21:53 | 33.02085 | -13.22015 | 37187 ft | 441 kts | 213° |
| 2026-04-30 21:53 | 32.96559 | -13.25209 | 37165 ft | 441 kts | 213° |
| 2026-04-30 21:54 | 32.91961 | -13.27863 | 37178 ft | 441 kts | 213° |
| 2026-04-30 21:54 | 32.86436 | -13.31048 | 37182 ft | 441 kts | 213° |
| 2026-04-30 21:55 | 32.80903 | -13.34234 | 37186 ft | 441 kts | 213° |
| 2026-04-30 21:55 | 32.75402 | -13.37397 | 37182 ft | 441 kts | 213° |
| 2026-04-30 21:56 | 32.69855 | -13.40581 | 37180 ft | 441 kts | 213° |
| 2026-04-30 21:56 | 32.64356 | -13.43734 | 37185 ft | 441 kts | 213° |
| 2026-04-30 21:57 | 32.58819 | -13.46905 | 37183 ft | 441 kts | 213° |
| 2026-04-30 21:57 | 32.53281 | -13.50071 | 37181 ft | 441 kts | 213° |
| 2026-04-30 21:58 | 32.47781 | -13.53211 | 37181 ft | 440 kts | 213° |
| 2026-04-30 21:58 | 32.42256 | -13.56361 | 37183 ft | 439 kts | 213° |
| 2026-04-30 21:59 | 32.36764 | -13.59490 | 37183 ft | 440 kts | 212° |
| 2026-04-30 22:00 | 32.28464 | -13.64207 | 37184 ft | 441 kts | 212° |
| 2026-04-30 22:00 | 32.20189 | -13.68900 | 37189 ft | 441 kts | 212° |
| 2026-04-30 22:01 | 32.14632 | -13.72047 | 37188 ft | 441 kts | 212° |
| 2026-04-30 22:01 | 32.09125 | -13.75162 | 37186 ft | 441 kts | 212° |
| 2026-04-30 22:02 | 32.03586 | -13.78290 | 37187 ft | 442 kts | 212° |
| 2026-04-30 22:02 | 31.98042 | -13.81417 | 37183 ft | 442 kts | 212° |
| 2026-04-30 22:03 | 31.92486 | -13.84547 | 37171 ft | 442 kts | 212° |
| 2026-04-30 22:03 | 31.86932 | -13.87670 | 37190 ft | 442 kts | 212° |
| 2026-04-30 22:04 | 31.81413 | -13.90771 | 37182 ft | 442 kts | 212° |
| 2026-04-30 22:05 | 31.73073 | -13.95448 | 37182 ft | 442 kts | 212° |
| 2026-04-30 22:05 | 31.67523 | -13.98556 | 37184 ft | 442 kts | 212° |
| 2026-04-30 22:06 | 31.61973 | -14.01659 | 37185 ft | 442 kts | 212° |
| 2026-04-30 22:06 | 31.53666 | -14.06296 | 37183 ft | 442 kts | 212° |
| 2026-04-30 22:07 | 31.48101 | -14.09398 | 37185 ft | 442 kts | 212° |
| 2026-04-30 22:07 | 31.42563 | -14.12480 | 37185 ft | 442 kts | 212° |
| 2026-04-30 22:08 | 31.36982 | -14.15582 | 37183 ft | 442 kts | 212° |
| 2026-04-30 22:08 | 31.31447 | -14.18654 | 37185 ft | 442 kts | 212° |
| 2026-04-30 22:09 | 31.25880 | -14.21740 | 37172 ft | 442 kts | 211° |
| 2026-04-30 22:09 | 31.20306 | -14.24826 | 37184 ft | 442 kts | 211° |
| 2026-04-30 22:10 | 31.14768 | -14.27888 | 37184 ft | 442 kts | 211° |
| 2026-04-30 22:10 | 31.09195 | -14.30966 | 37184 ft | 442 kts | 211° |
| 2026-04-30 22:11 | 31.00872 | -14.35555 | 37184 ft | 442 kts | 211° |
| 2026-04-30 22:12 | 30.95291 | -14.38627 | 37178 ft | 443 kts | 211° |
| 2026-04-30 22:12 | 30.89668 | -14.41608 | 37181 ft | 447 kts | 206° |
| 2026-04-30 22:13 | 30.83747 | -14.43877 | 37182 ft | 450 kts | 204° |
| 2026-04-30 22:13 | 30.77803 | -14.46056 | 37181 ft | 450 kts | 204° |
| 2026-04-30 22:14 | 30.71824 | -14.48254 | 37184 ft | 450 kts | 204° |
| 2026-04-30 22:14 | 30.65850 | -14.50452 | 37175 ft | 449 kts | 204° |
| 2026-04-30 22:15 | 30.59906 | -14.52636 | 37181 ft | 449 kts | 204° |
| 2026-04-30 22:15 | 30.53938 | -14.54827 | 37180 ft | 449 kts | 204° |
| 2026-04-30 22:16 | 30.47970 | -14.57016 | 37179 ft | 449 kts | 204° |
| 2026-04-30 22:17 | 30.36070 | -14.61371 | 37182 ft | 450 kts | 203° |
| 2026-04-30 22:17 | 30.27118 | -14.64641 | 37177 ft | 450 kts | 203° |
| 2026-04-30 22:18 | 30.18172 | -14.67901 | 37182 ft | 450 kts | 203° |
| 2026-04-30 22:19 | 30.09187 | -14.71171 | 37177 ft | 452 kts | 203° |
| 2026-04-30 22:20 | 30.00202 | -14.74434 | 37178 ft | 453 kts | 203° |
| 2026-04-30 22:20 | 29.91154 | -14.77712 | 37179 ft | 453 kts | 203° |
| 2026-04-30 22:21 | 29.85170 | -14.79877 | 37179 ft | 453 kts | 203° |
| 2026-04-30 22:21 | 29.79138 | -14.82057 | 37178 ft | 453 kts | 203° |
| 2026-04-30 22:22 | 29.73117 | -14.84231 | 37178 ft | 453 kts | 203° |
| 2026-04-30 22:22 | 29.67129 | -14.86389 | 37178 ft | 453 kts | 203° |
| 2026-04-30 22:23 | 29.61103 | -14.88559 | 37177 ft | 453 kts | 203° |
| 2026-04-30 22:23 | 29.55074 | -14.90727 | 37179 ft | 453 kts | 203° |
| 2026-04-30 22:24 | 29.49045 | -14.92892 | 37179 ft | 453 kts | 203° |
| 2026-04-30 22:24 | 29.43019 | -14.95053 | 37177 ft | 453 kts | 203° |
| 2026-04-30 22:25 | 29.37041 | -14.97195 | 37178 ft | 452 kts | 203° |
| 2026-04-30 22:25 | 29.31014 | -14.99351 | 37178 ft | 452 kts | 203° |
| 2026-04-30 22:26 | 29.22030 | -15.02562 | 37177 ft | 453 kts | 202° |
| 2026-04-30 22:27 | 29.16008 | -15.04710 | 37178 ft | 453 kts | 202° |
| 2026-04-30 22:27 | 29.06967 | -15.07930 | 37178 ft | 453 kts | 202° |
| 2026-04-30 22:28 | 28.97957 | -15.11133 | 37178 ft | 453 kts | 202° |
| 2026-04-30 22:29 | 28.85932 | -15.15399 | 37173 ft | 453 kts | 202° |
| 2026-04-30 22:31 | 28.64850 | -15.22852 | 37170 ft | 453 kts | 202° |
| 2026-04-30 22:32 | 28.49768 | -15.28170 | 37164 ft | 453 kts | 202° |
| 2026-04-30 22:33 | 28.34719 | -15.33462 | 37159 ft | 453 kts | 202° |
| 2026-04-30 22:35 | 28.19690 | -15.38731 | 37154 ft | 453 kts | 202° |
| 2026-04-30 22:36 | 28.04632 | -15.43996 | 37151 ft | 452 kts | 202° |
| 2026-04-30 22:37 | 27.92622 | -15.48186 | 37153 ft | 452 kts | 202° |
| 2026-04-30 22:38 | 27.80607 | -15.52354 | 37157 ft | 452 kts | 202° |
| 2026-04-30 22:39 | 27.71624 | -15.55460 | 36887 ft | 446 kts | 202° |
| 2026-04-30 22:39 | 27.62655 | -15.58521 | 34913 ft | 451 kts | 202° |
| 2026-04-30 22:40 | 27.54170 | -15.58407 | 32943 ft | 486 kts | 163° |
| 2026-04-30 22:41 | 27.46845 | -15.50448 | 30828 ft | 514 kts | 116° |
| 2026-04-30 22:41 | 27.45611 | -15.42511 | 29372 ft | 520 kts | 89° |
| 2026-04-30 22:42 | 27.46560 | -15.26488 | 26901 ft | 505 kts | 86° |
| 2026-04-30 22:43 | 27.47030 | -15.18664 | 25768 ft | 496 kts | 86° |
| 2026-04-30 22:43 | 27.48293 | -15.11132 | 24653 ft | 486 kts | 63° |
| 2026-04-30 22:44 | 27.52476 | -15.05448 | 23575 ft | 466 kts | 31° |
| 2026-04-30 22:45 | 27.63320 | -14.98131 | 21284 ft | 446 kts | 26° |
| 2026-04-30 22:45 | 27.68651 | -14.94639 | 20205 ft | 438 kts | 26° |
| 2026-04-30 22:46 | 27.73859 | -14.91243 | 19172 ft | 430 kts | 26° |
| 2026-04-30 22:47 | 27.84219 | -14.84929 | 16865 ft | 413 kts | 12° |
| 2026-04-30 22:47 | 27.89758 | -14.84794 | 15783 ft | 396 kts | 347° |
| 2026-04-30 22:48 | 27.95162 | -14.85816 | 14655 ft | 391 kts | 347° |
| 2026-04-30 22:49 | 28.03137 | -14.87390 | 12956 ft | 384 kts | 347° |
| 2026-04-30 22:49 | 28.10952 | -14.89007 | 11336 ft | 376 kts | 347° |
| 2026-04-30 22:50 | 28.20618 | -14.91054 | 10615 ft | 330 kts | 347° |
| 2026-04-30 22:51 | 28.24977 | -14.91967 | 10353 ft | 311 kts | 347° |
| 2026-04-30 22:51 | 28.28840 | -14.93626 | 9858 ft | 292 kts | 314° |
| 2026-04-30 22:52 | 28.30077 | -14.95422 | 9513 ft | 287 kts | 299° |
| 2026-04-30 22:52 | 28.31746 | -14.99472 | 8828 ft | 281 kts | 280° |
| 2026-04-30 22:53 | 28.31148 | -15.03676 | 8116 ft | 276 kts | 237° |
| 2026-04-30 22:53 | 28.28779 | -15.07112 | 7438 ft | 275 kts | 230° |
| 2026-04-30 22:53 | 28.27564 | -15.08762 | 7099 ft | 275 kts | 230° |
| 2026-04-30 22:54 | 28.25117 | -15.12092 | 6419 ft | 274 kts | 230° |
| 2026-04-30 22:55 | 28.21495 | -15.17029 | 4146 ft | 271 kts | 231° |
| 2026-04-30 22:55 | 28.19162 | -15.20207 | 3543 ft | 260 kts | 231° |
| 2026-04-30 22:56 | 28.16855 | -15.23351 | 2973 ft | 260 kts | 231° |
| 2026-04-30 22:56 | 28.13365 | -15.28175 | 2353 ft | 263 kts | 231° |
| 2026-04-30 22:57 | 28.10829 | -15.30928 | 2030 ft | 247 kts | 206° |
| 2026-04-30 22:57 | 28.07769 | -15.32194 | 2004 ft | 220 kts | 200° |
| 2026-04-30 22:58 | 28.05110 | -15.33382 | 2043 ft | 191 kts | 201° |
| 2026-04-30 22:59 | 28.01391 | -15.35029 | 1538 ft | 171 kts | 200° |
| 2026-04-30 22:59 | 27.98453 | -15.36329 | 929 ft | 140 kts | 200° |